Time;durP1;ratioP1;P1;durP2;ratioP2;P2;SDS_P1;SDS_P2;PMS_P1;PMS_P2;Temp;Humidity;BMP_temperature;BMP_pressure;BME280_temperature;BME280_humidity;BME280_pressure;Samples;Min_cycle;Max_cycle;Signal;HPM_P1;HPM_P2
2021/12/12 00:01:25;;;;;;;18.83;5.10;;;;;;;3.62;92.24;99529.78;5064217;28;20084;-66
2021/12/12 00:03:56;;;;;;;9.40;4.28;;;;;;;3.68;92.57;99535.13;5064133;28;20216;-66
2021/12/12 00:06:25;;;;;;;15.63;4.72;;;;;;;3.75;91.86;99525.69;5063989;28;20051;-66
2021/12/12 00:08:57;;;;;;;11.13;4.07;;;;;;;3.77;91.74;99524.88;5058193;28;20037;-66
2021/12/12 00:11:26;;;;;;;13.48;4.53;;;;;;;3.86;91.25;99525.06;5064333;28;20032;-66
2021/12/12 00:14:02;;;;;;;17.25;4.30;;;;;;;3.75;90.88;99525.69;5062791;28;20021;-66
2021/12/12 00:16:28;;;;;;;9.90;3.60;;;;;;;3.73;91.44;99517.84;5063791;28;20028;-66
2021/12/12 00:18:54;;;;;;;16.48;3.55;;;;;;;3.78;91.66;99521.44;5063616;28;20040;-66
2021/12/12 00:21:24;;;;;;;13.18;3.60;;;;;;;3.81;91.33;99521.50;5063776;28;20107;-66
2021/12/12 00:23:50;;;;;;;15.43;3.92;;;;;;;3.81;91.47;99526.72;5063954;28;20228;-66
2021/12/12 00:26:15;;;;;;;12.10;3.60;;;;;;;3.77;91.76;99532.69;5063677;28;20028;-66
2021/12/12 00:28:41;;;;;;;10.73;3.38;;;;;;;3.81;91.45;99529.31;5063655;28;20025;-66
2021/12/12 00:31:10;;;;;;;16.48;3.85;;;;;;;3.79;92.08;99538.81;5063758;28;20025;-66
2021/12/12 00:33:47;;;;;;;8.55;3.47;;;;;;;3.73;92.09;99543.00;5063767;28;20025;-66
2021/12/12 00:36:17;;;;;;;14.65;3.92;;;;;;;3.73;92.62;99538.66;5062734;28;20025;-66
2021/12/12 00:38:46;;;;;;;13.50;3.80;;;;;;;3.76;92.65;99537.84;5063501;28;20012;-66
2021/12/12 00:41:16;;;;;;;12.23;3.75;;;;;;;3.78;92.15;99546.59;5063045;28;20020;-66
2021/12/12 00:43:50;;;;;;;11.70;3.75;;;;;;;3.75;93.21;99557.81;5063267;28;20104;-66
2021/12/12 00:46:17;;;;;;;14.27;3.67;;;;;;;3.72;92.35;99556.88;5063112;28;20017;-66
2021/12/12 00:48:44;;;;;;;10.65;2.88;;;;;;;3.74;91.85;99550.84;5063315;28;20048;-66
2021/12/12 00:51:13;;;;;;;8.75;3.20;;;;;;;3.85;91.82;99559.78;5062982;28;20198;-66
2021/12/12 00:53:40;;;;;;;12.38;3.30;;;;;;;3.87;92.44;99558.09;5063327;28;20058;-66
2021/12/12 00:56:06;;;;;;;14.32;3.30;;;;;;;3.81;92.46;99547.53;5063001;28;20048;-66
2021/12/12 00:58:34;;;;;;;13.43;3.88;;;;;;;3.83;92.99;99552.78;5063031;28;20025;-66
2021/12/12 01:01:12;;;;;;;10.27;2.72;;;;;;;3.85;93.71;99543.25;5063467;28;20216;-66
2021/12/12 01:03:42;;;;;;;10.05;3.17;;;;;;;3.85;93.33;99533.75;5063049;28;20063;-66
2021/12/12 01:06:09;;;;;;;11.55;3.25;;;;;;;3.83;92.20;99524.16;5063217;28;20079;-66
2021/12/12 01:08:36;;;;;;;12.07;3.45;;;;;;;3.83;93.09;99530.22;5063230;28;20356;-66
2021/12/12 01:11:10;;;;;;;9.23;2.92;;;;;;;3.81;92.84;99526.72;5063389;28;20224;-66
2021/12/12 01:13:36;;;;;;;14.77;3.25;;;;;;;3.73;93.23;99528.25;5063033;28;20087;-66
2021/12/12 01:16:24;;;;;;;12.00;3.15;;;;;;;3.67;92.80;99545.50;5062351;28;20024;-66
2021/12/12 01:18:59;;;;;;;7.50;3.03;;;;;;;3.73;92.88;99536.06;5058250;28;20045;-66
2021/12/12 01:21:30;;;;;;;14.68;3.10;;;;;;;3.73;92.37;99533.47;5062914;28;20087;-66
2021/12/12 01:24:08;;;;;;;10.23;2.45;;;;;;;3.74;92.90;99535.22;5061959;28;20031;-66
2021/12/12 01:26:34;;;;;;;8.90;2.70;;;;;;;3.73;92.20;99546.50;5063111;28;20021;-66
2021/12/12 01:29:01;;;;;;;16.95;3.30;;;;;;;3.79;92.30;99559.63;5062734;28;20261;-66
2021/12/12 01:31:32;;;;;;;7.95;2.63;;;;;;;3.84;92.70;99560.63;5062938;28;20021;-66
2021/12/12 01:34:12;;;;;;;13.63;3.92;;;;;;;3.79;92.27;99557.03;5063174;28;20021;-66
2021/12/12 01:39:30;;;;;;;15.30;3.33;;;;;;;3.77;92.09;99545.69;5056071;28;20043;-66
2021/12/12 01:41:58;;;;;;;11.50;3.05;;;;;;;3.81;91.95;99552.75;5063154;28;20024;-66
2021/12/12 01:44:49;;;;;;;13.63;3.65;;;;;;;3.74;91.66;99545.63;5062716;28;20017;-66
2021/12/12 01:47:28;;;;;;;10.75;3.45;;;;;;;3.72;91.11;99556.88;5058216;28;20080;-66
2021/12/12 01:49:59;;;;;;;14.60;3.25;;;;;;;3.62;92.08;99557.50;5062673;28;20024;-66
2021/12/12 01:52:27;;;;;;;10.90;3.47;;;;;;;3.55;92.98;99558.22;5062237;28;20074;-66
2021/12/12 01:54:59;;;;;;;12.98;3.15;;;;;;;3.46;92.90;99547.59;5062952;28;20047;-66
2021/12/12 01:57:31;;;;;;;10.98;3.08;;;;;;;3.36;93.02;99551.69;5062545;28;20088;-66
2021/12/12 01:59:57;;;;;;;;;;;;;;;3.34;93.49;99548.19;5063375;28;20044;-66
2021/12/12 02:02:29;;;;;;;12.80;2.97;;;;;;;3.30;94.15;99555.88;5062503;28;19904;-66
2021/12/12 02:05:00;;;;;;;9.53;3.53;;;;;;;3.22;94.20;99553.09;5065592;28;20047;-66
2021/12/12 02:07:36;;;;;;;6.50;2.70;;;;;;;3.00;93.44;99550.81;5059913;28;20269;-66
2021/12/12 02:10:08;;;;;;;11.35;3.63;;;;;;;2.86;94.25;99562.59;5066408;28;20029;-66
2021/12/12 02:12:34;;;;;;;10.07;2.78;;;;;;;2.76;94.50;99570.13;5066370;28;20017;-66
2021/12/12 02:15:01;;;;;;;10.27;3.03;;;;;;;2.76;95.78;99571.00;5066275;28;20366;-66
2021/12/12 02:17:39;;;;;;;12.77;3.08;;;;;;;2.70;95.84;99565.66;5065970;28;20052;-66
2021/12/12 02:20:23;;;;;;;13.98;3.80;;;;;;;2.67;96.31;99568.16;5066467;28;20020;-66
2021/12/12 02:36:21;;;;;;;9.20;2.90;;;;;;;2.61;97.10;99573.19;5065858;28;20055;-66
2021/12/12 02:38:51;;;;;;;13.93;3.13;;;;;;;2.56;96.85;99574.78;5065602;28;20029;-66
2021/12/12 02:41:19;;;;;;;8.95;3.15;;;;;;;2.56;97.79;99576.50;5065863;28;20336;-66
2021/12/12 02:43:50;;;;;;;14.15;4.05;;;;;;;2.48;97.37;99573.72;5065644;28;20025;-66
2021/12/12 02:46:21;;;;;;;9.82;2.60;;;;;;;2.44;97.42;99571.88;5065763;28;20033;-66
2021/12/12 02:48:48;;;;;;;12.32;3.13;;;;;;;2.38;97.14;99582.09;5065595;28;20012;-66
2021/12/12 02:51:16;;;;;;;6.90;2.28;;;;;;;2.29;97.15;99576.63;5065373;28;20021;-66
2021/12/12 02:53:53;;;;;;;9.45;2.47;;;;;;;2.22;97.84;99585.09;5065751;28;20017;-66
2021/12/12 02:56:29;;;;;;;5.32;2.25;;;;;;;2.16;97.69;99584.91;5065445;28;20049;-66
2021/12/12 02:58:55;;;;;;;9.45;2.90;;;;;;;2.15;98.18;99583.13;5058302;28;20024;-66
2021/12/12 03:01:34;;;;;;;13.20;3.28;;;;;;;2.15;98.27;99583.13;5063433;28;20051;-66
2021/12/12 03:04:00;;;;;;;11.85;3.42;;;;;;;2.05;98.14;99581.13;5065426;28;20021;-66
2021/12/12 03:06:29;;;;;;;12.60;2.88;;;;;;;2.00;98.26;99583.56;5065243;28;20305;-66
2021/12/12 03:09:05;;;;;;;12.25;2.65;;;;;;;1.97;97.84;99583.47;5065164;28;20029;-66
2021/12/12 03:11:31;;;;;;;6.32;2.80;;;;;;;1.98;97.77;99579.19;5065366;28;20024;-66
2021/12/12 03:13:57;;;;;;;10.13;3.05;;;;;;;1.97;98.21;99574.84;5064955;28;20182;-66
2021/12/12 03:16:23;;;;;;;8.77;3.05;;;;;;;1.97;98.43;99577.44;5064911;28;20084;-66
2021/12/12 03:18:50;;;;;;;10.32;3.08;;;;;;;2.00;98.32;99577.53;5063342;28;20051;-66
2021/12/12 03:21:37;;;;;;;7.88;3.03;;;;;;;1.99;98.00;99581.81;5065276;28;20063;-66
2021/12/12 03:24:13;;;;;;;6.53;2.83;;;;;;;2.03;98.24;99575.03;5065048;28;20021;-66
2021/12/12 03:26:43;;;;;;;9.63;3.35;;;;;;;1.95;98.01;99571.31;5064967;28;20058;-66
2021/12/12 03:29:08;;;;;;;10.27;3.47;;;;;;;1.83;97.94;99563.16;5065073;28;20024;-66
2021/12/12 03:31:42;;;;;;;9.63;3.40;;;;;;;1.84;98.07;99570.13;5064733;28;20088;-66
2021/12/12 03:34:13;;;;;;;9.98;3.15;;;;;;;1.89;97.80;99571.13;5064330;28;20246;-66
2021/12/12 03:36:40;;;;;;;13.55;3.90;;;;;;;1.81;98.05;99570.03;5064362;28;20033;-66
2021/12/12 03:39:13;;;;;;;8.38;3.00;;;;;;;1.70;98.65;99572.31;5064598;28;20062;-66
2021/12/12 03:41:40;;;;;;;10.32;3.10;;;;;;;1.65;98.73;99578.19;5064494;28;20221;-66
2021/12/12 03:44:10;;;;;;;14.48;3.33;;;;;;;1.62;98.92;99578.94;5064353;28;20056;-66
2021/12/12 03:46:36;;;;;;;11.88;3.53;;;;;;;1.62;98.94;99578.09;5064576;28;20331;-66
2021/12/12 03:49:04;;;;;;;7.68;2.88;;;;;;;1.51;97.95;99579.47;5064419;28;20025;-66
2021/12/12 03:51:30;;;;;;;11.23;2.88;;;;;;;1.40;98.27;99580.84;5064205;28;20110;-66
2021/12/12 03:53:56;;;;;;;8.70;2.75;;;;;;;1.40;98.63;99584.34;5064344;28;20036;-66
2021/12/12 03:56:22;;;;;;;14.23;3.80;;;;;;;1.44;98.56;99575.81;5064188;28;20075;-66
2021/12/12 03:58:49;;;;;;;10.50;3.00;;;;;;;1.40;99.10;99573.97;5064475;28;20021;-66
2021/12/12 04:01:32;;;;;;;16.05;3.50;;;;;;;1.37;99.08;99575.56;5064286;28;20021;-66
2021/12/12 04:04:03;;;;;;;7.95;2.65;;;;;;;1.30;99.04;99579.66;5063979;28;20092;-66
2021/12/12 04:06:30;;;;;;;9.63;2.90;;;;;;;1.07;98.94;99565.09;5064249;28;20024;-66
2021/12/12 04:08:56;;;;;;;12.80;3.67;;;;;;;1.00;99.22;99564.84;5063724;28;20143;-66
2021/12/12 04:11:30;;;;;;;28.70;10.23;;;;;;;1.01;99.21;99574.41;5064166;28;20025;-66
2021/12/12 04:13:57;;;;;;;23.67;9.95;;;;;;;0.89;99.92;99573.97;5063954;28;20027;-66
2021/12/12 04:16:25;;;;;;;41.78;15.50;;;;;;;0.99;100.00;99573.44;5063674;28;20025;-66
2021/12/12 04:18:51;;;;;;;15.43;5.82;;;;;;;1.01;100.00;99561.44;5063650;28;20036;-66
2021/12/12 04:21:20;;;;;;;10.02;3.17;;;;;;;1.12;100.00;99567.84;5063886;28;20027;-66
2021/12/12 04:23:45;;;;;;;15.80;4.00;;;;;;;1.28;100.00;99564.91;5063641;28;20074;-66
2021/12/12 04:26:21;;;;;;;28.35;10.90;;;;;;;1.27;99.64;99557.97;5062820;28;20041;-66
2021/12/12 04:29:01;;;;;;;13.95;4.15;;;;;;;1.22;98.98;99564.69;5063554;28;20062;-66
2021/12/12 04:31:27;;;;;;;10.48;4.15;;;;;;;1.15;98.75;99583.50;5063628;28;20028;-66
2021/12/12 04:33:53;;;;;;;21.55;6.20;;;;;;;1.14;99.08;99581.75;5063644;28;20020;-66
2021/12/12 04:36:28;;;;;;;11.43;3.60;;;;;;;1.16;98.88;99582.66;5063682;28;20075;-66
2021/12/12 04:39:05;;;;;;;10.85;4.13;;;;;;;1.19;99.50;99580.16;5063570;28;20059;-66
2021/12/12 04:41:30;;;;;;;9.35;3.05;;;;;;;1.18;99.59;99578.41;5056178;28;20024;-66
2021/12/12 04:43:56;;;;;;;13.55;3.45;;;;;;;1.28;99.93;99580.47;5063506;28;20059;-66
2021/12/12 04:46:26;;;;;;;15.43;4.10;;;;;;;1.25;99.52;99577.75;5063206;28;20017;-66
2021/12/12 04:51:48;;;;;;;16.50;5.05;;;;;;;1.32;99.33;99578.00;5056769;28;20140;-66
2021/12/12 04:54:38;;;;;;;21.73;6.75;;;;;;;1.32;99.21;99577.13;5063373;28;20310;-66
2021/12/12 04:57:12;;;;;;;11.98;3.20;;;;;;;1.35;99.73;99577.22;5063199;28;20027;-66
2021/12/12 04:59:53;;;;;;;11.80;3.55;;;;;;;1.39;99.77;99579.09;5063257;28;20013;-66
2021/12/12 05:02:44;;;;;;;11.85;2.97;;;;;;;1.52;99.79;99581.25;5063283;28;20025;-66
2021/12/12 05:05:17;;;;;;;14.75;3.10;;;;;;;1.63;99.90;99588.53;5034667;28;20217;-66
2021/12/12 05:07:54;;;;;;;;;;;;;;;1.82;99.79;99587.34;5063614;28;20099;-66
2021/12/12 05:10:35;;;;;;;8.65;2.67;;;;;;;1.95;99.33;99585.19;5063039;28;19908;-66
2021/12/12 05:13:13;;;;;;;10.10;2.28;;;;;;;2.04;99.01;99584.56;5063184;28;20020;-66
2021/12/12 05:15:42;;;;;;;7.93;2.67;;;;;;;2.17;98.24;99594.47;5060508;28;20068;-66
2021/12/12 05:18:13;;;;;;;14.50;2.72;;;;;;;2.22;97.66;99595.47;5062738;28;20032;-66
2021/12/12 05:20:45;;;;;;;11.57;2.35;;;;;;;2.31;97.59;99594.84;5063283;28;20103;-66
2021/12/12 05:23:14;;;;;;;7.80;2.17;;;;;;;2.36;97.33;99604.53;5063011;28;20351;-66
2021/12/12 05:25:48;;;;;;;10.90;2.08;;;;;;;2.43;96.32;99600.41;5061990;28;20066;-66
2021/12/12 05:28:17;;;;;;;6.30;2.03;;;;;;;2.52;96.65;99604.13;5063345;28;20020;-66
2021/12/12 05:30:43;;;;;;;10.90;2.35;;;;;;;2.56;97.21;99608.56;5062845;28;20020;-66
2021/12/12 05:33:13;;;;;;;10.35;2.30;;;;;;;2.61;96.87;99614.78;5062853;28;20063;-66
2021/12/12 05:35:40;;;;;;;9.48;2.10;;;;;;;2.68;96.34;99619.28;5062795;28;20020;-66
2021/12/12 05:38:07;;;;;;;11.23;2.33;;;;;;;2.60;95.81;99617.34;5063109;28;20228;-66
2021/12/12 05:40:36;;;;;;;5.90;1.70;;;;;;;2.67;95.98;99622.75;5066653;28;20059;-66
2021/12/12 05:43:04;;;;;;;8.93;2.10;;;;;;;2.65;95.67;99621.81;5066960;28;20186;-66
2021/12/12 05:45:32;;;;;;;5.38;2.00;;;;;;;2.71;95.89;99624.59;5066214;28;20347;-66
2021/12/12 05:47:59;;;;;;;7.82;2.00;;;;;;;2.75;95.11;99628.16;5066881;28;20027;-66
2021/12/12 05:50:26;;;;;;;3.97;1.85;;;;;;;2.79;94.99;99628.28;5066661;28;20031;-66
2021/12/12 05:52:54;;;;;;;6.82;2.10;;;;;;;2.83;94.52;99630.13;5066430;28;20042;-66
2021/12/12 05:55:26;;;;;;;8.35;1.98;;;;;;;2.88;94.83;99627.63;5065810;28;20017;-66
2021/12/12 05:57:55;;;;;;;12.70;1.75;;;;;;;2.91;94.08;99636.38;5066228;28;20048;-66
2021/12/12 06:00:27;;;;;;;8.23;2.30;;;;;;;2.90;93.71;99633.75;5066454;28;20024;-66
2021/12/12 06:02:54;;;;;;;6.00;2.08;;;;;;;2.91;94.76;99628.56;5066278;28;20025;-66
2021/12/12 06:05:20;;;;;;;11.60;2.10;;;;;;;2.97;94.36;99633.94;5065886;28;20027;-66
2021/12/12 06:07:46;;;;;;;8.75;2.20;;;;;;;3.02;94.21;99631.47;5066005;28;20020;-66
2021/12/12 06:10:15;;;;;;;10.98;2.50;;;;;;;3.04;93.85;99632.41;5067942;28;20066;-66
2021/12/12 06:12:43;;;;;;;7.15;2.10;;;;;;;2.98;94.81;99635.72;5065778;28;20020;-66
2021/12/12 06:15:17;;;;;;;9.95;2.85;;;;;;;3.03;94.86;99636.72;5065466;28;20052;-65
2021/12/12 06:17:43;;;;;;;12.45;2.42;;;;;;;2.96;94.83;99647.78;5063801;28;20075;-66
2021/12/12 06:20:11;;;;;;;10.73;2.10;;;;;;;3.04;93.32;99635.84;5065913;28;20088;-66
2021/12/12 06:22:37;;;;;;;12.85;2.42;;;;;;;3.10;92.96;99646.44;5066436;28;20048;-66
2021/12/12 06:25:05;;;;;;;12.55;2.42;;;;;;;3.14;93.32;99640.50;5066069;28;20080;-66
2021/12/12 06:27:32;;;;;;;6.35;1.90;;;;;;;3.22;92.83;99651.94;5066200;28;20029;-66
2021/12/12 06:29:57;;;;;;;6.47;2.00;;;;;;;3.22;92.92;99654.56;5065844;28;20040;-66
2021/12/12 06:32:24;;;;;;;6.22;2.28;;;;;;;3.18;92.66;99650.13;5065740;28;20220;-66
2021/12/12 06:34:54;;;;;;;15.88;2.60;;;;;;;3.22;92.92;99651.06;5065988;28;20028;-66
2021/12/12 06:37:20;;;;;;;13.45;2.33;;;;;;;3.19;92.14;99651.88;5065729;28;20017;-66
2021/12/12 06:39:46;;;;;;;6.10;1.98;;;;;;;3.23;92.86;99658.91;5065717;28;20021;-66
2021/12/12 06:42:14;;;;;;;11.60;2.40;;;;;;;3.27;93.41;99665.97;5065811;28;20050;-66
2021/12/12 06:44:41;;;;;;;16.63;3.05;;;;;;;3.23;93.36;99664.09;5065430;28;20105;-66
2021/12/12 06:47:08;;;;;;;7.68;1.98;;;;;;;3.26;93.55;99668.53;5065657;28;20017;-66
2021/12/12 06:49:34;;;;;;;6.65;2.05;;;;;;;3.21;93.75;99660.59;5065096;28;20099;-66
2021/12/12 06:52:08;;;;;;;7.45;2.20;;;;;;;3.20;93.72;99660.56;5064392;28;20021;-66
2021/12/12 06:54:34;;;;;;;10.50;2.40;;;;;;;3.18;93.62;99659.63;5065604;28;20032;-66
2021/12/12 06:57:03;;;;;;;8.30;2.40;;;;;;;3.24;94.17;99660.69;5065437;28;20021;-66
2021/12/12 06:59:31;;;;;;;10.15;2.22;;;;;;;3.21;93.35;99665.81;5065303;28;20110;-66
2021/12/12 07:01:57;;;;;;;15.30;2.45;;;;;;;3.23;93.82;99658.03;5065336;28;20032;-66
2021/12/12 07:04:23;;;;;;;6.63;2.20;;;;;;;3.23;94.66;99663.25;5065096;28;20024;-67
2021/12/12 07:06:53;;;;;;;8.23;2.00;;;;;;;3.29;93.38;99661.66;5065533;28;20020;-66
2021/12/12 07:09:18;;;;;;;5.03;2.03;;;;;;;3.28;92.11;99652.09;5063513;28;20016;-66
2021/12/12 07:11:45;;;;;;;12.43;2.17;;;;;;;3.37;91.97;99657.56;5065201;28;20017;-66
2021/12/12 07:14:12;;;;;;;5.95;2.35;;;;;;;3.47;91.38;99669.94;5065111;28;20020;-66
2021/12/12 07:16:39;;;;;;;10.38;2.10;;;;;;;3.46;90.76;99663.00;5064817;28;20016;-66
2021/12/12 07:19:05;;;;;;;13.35;2.60;;;;;;;3.47;91.01;99669.94;5064916;28;20075;-66
2021/12/12 07:21:31;;;;;;;11.20;2.45;;;;;;;3.44;90.86;99664.66;5065209;28;20088;-66
2021/12/12 07:23:59;;;;;;;8.77;2.75;;;;;;;3.38;91.78;99667.09;5065052;28;20055;-66
2021/12/12 07:26:26;;;;;;;5.70;2.03;;;;;;;3.43;91.35;99668.13;5065293;28;20261;-66
2021/12/12 07:28:56;;;;;;;11.43;2.35;;;;;;;3.50;91.31;99663.94;5064860;28;20043;-66
2021/12/12 07:31:26;;;;;;;14.73;2.88;;;;;;;3.50;92.03;99664.81;5064736;28;20020;-66
2021/12/12 07:33:55;;;;;;;11.27;2.88;;;;;;;3.52;92.22;99667.47;5064760;28;20329;-66
2021/12/12 07:36:22;;;;;;;12.73;2.97;;;;;;;3.59;91.79;99675.47;5064195;28;20067;-66
2021/12/12 07:38:52;;;;;;;11.45;2.67;;;;;;;3.62;91.24;99675.53;5064315;28;20422;-66
2021/12/12 07:41:21;;;;;;;11.15;3.22;;;;;;;3.70;90.36;99673.97;5064271;28;20305;-66
2021/12/12 07:43:49;;;;;;;11.23;2.50;;;;;;;3.75;89.43;99672.38;5064234;28;20016;-66
2021/12/12 07:46:15;;;;;;;16.38;2.28;;;;;;;3.74;89.24;99665.41;5064565;28;20201;-66
2021/12/12 07:48:44;;;;;;;11.35;2.50;;;;;;;3.78;89.46;99671.56;5064099;28;20017;-66
2021/12/12 07:51:10;;;;;;;7.47;2.28;;;;;;;3.86;88.99;99673.50;5064215;28;20021;-66
2021/12/12 07:53:36;;;;;;;10.02;1.90;;;;;;;3.97;87.91;99672.03;5064260;28;20024;-66
2021/12/12 07:56:02;;;;;;;5.32;1.98;;;;;;;3.98;87.59;99672.91;5064455;28;20052;-66
2021/12/12 07:58:27;;;;;;;13.80;1.75;;;;;;;4.01;87.90;99665.16;5063103;28;20177;-66
2021/12/12 08:00:55;;;;;;;5.28;1.75;;;;;;;4.00;88.19;99673.84;5062749;28;20236;-66
2021/12/12 08:03:26;;;;;;;15.95;2.42;;;;;;;3.96;88.38;99678.06;5063393;28;20031;-66
2021/12/12 08:05:52;;;;;;;12.98;2.28;;;;;;;3.94;88.29;99679.78;5063280;28;20025;-66
2021/12/12 08:08:18;;;;;;;6.00;1.67;;;;;;;4.01;88.22;99680.78;5063236;28;20052;-66
2021/12/12 08:10:47;;;;;;;12.15;2.30;;;;;;;3.97;88.40;99685.06;5062983;28;20063;-66
2021/12/12 08:13:14;;;;;;;6.95;2.00;;;;;;;4.08;88.13;99686.19;5062270;28;20028;-66
2021/12/12 08:15:40;;;;;;;15.05;2.75;;;;;;;4.11;88.36;99681.03;5062490;28;20059;-66
2021/12/12 08:18:09;;;;;;;13.07;1.80;;;;;;;4.12;87.24;99679.31;5062524;28;20049;-66
2021/12/12 08:20:36;;;;;;;7.40;2.20;;;;;;;4.15;87.56;99679.41;5062454;28;20021;-66
2021/12/12 08:23:03;;;;;;;10.60;1.95;;;;;;;4.20;88.28;99689.06;5062796;28;20067;-66
2021/12/12 08:25:30;;;;;;;7.78;2.63;;;;;;;4.22;87.83;99689.09;5062743;28;20021;-66
2021/12/12 08:28:00;;;;;;;12.25;2.53;;;;;;;4.25;88.16;99690.03;5062518;28;20088;-66
2021/12/12 08:30:27;;;;;;;8.20;1.80;;;;;;;4.19;88.10;99686.44;5062880;28;20021;-66
2021/12/12 08:32:54;;;;;;;12.73;2.17;;;;;;;4.25;88.38;99690.03;5062713;28;20035;-66
2021/12/12 08:35:24;;;;;;;11.50;2.60;;;;;;;4.28;87.90;99684.88;5062729;28;20024;-66
2021/12/12 08:37:50;;;;;;;10.85;2.42;;;;;;;4.42;88.33;99693.91;5062285;28;20051;-66
2021/12/12 08:40:19;;;;;;;13.15;2.95;;;;;;;4.64;88.79;99691.72;5062682;28;20025;-66
2021/12/12 08:42:49;;;;;;;11.68;2.13;;;;;;;4.65;87.49;99696.97;5062487;28;20044;-66
2021/12/12 08:45:18;;;;;;;8.13;2.22;;;;;;;4.73;86.43;99692.81;5062820;28;20016;-66
2021/12/12 08:47:46;;;;;;;12.38;2.33;;;;;;;4.83;86.18;99705.19;5062466;28;20114;-66
2021/12/12 08:50:14;;;;;;;10.95;2.75;;;;;;;4.95;85.45;99710.66;5062350;28;20021;-66
2021/12/12 08:52:45;;;;;;;10.27;2.30;;;;;;;4.89;86.00;99712.25;5061980;28;20025;-66
2021/12/12 08:55:18;;;;;;;10.70;2.25;;;;;;;4.87;85.99;99716.59;5062081;28;20256;-66
2021/12/12 08:58:32;;;;;;;9.95;2.47;;;;;;;4.81;85.73;99716.44;5062363;28;20048;-66
2021/12/12 09:00:40;;;;;;;6.82;1.80;;;;;;;4.80;85.13;99719.88;5053934;28;20045;-66
2021/12/12 09:03:07;;;;;;;7.32;1.80;;;;;;;4.79;85.49;99728.56;5062873;28;20025;-66
2021/12/12 09:05:36;;;;;;;5.88;2.20;;;;;;;4.78;86.28;99732.03;5061891;28;20084;-66
2021/12/12 09:08:13;;;;;;;13.35;2.80;;;;;;;4.67;86.46;99736.13;5062497;28;20028;-66
2021/12/12 09:10:50;;;;;;;10.93;2.35;;;;;;;4.62;87.51;99724.75;5061883;28;20020;-66
2021/12/12 09:13:22;;;;;;;6.97;2.28;;;;;;;4.67;87.01;99733.53;5061609;28;20051;-66
2021/12/12 09:15:58;;;;;;;;;;;;;;;4.66;87.01;99744.81;5069073;28;20320;-66
2021/12/12 09:18:40;;;;;;;8.27;2.40;;;;;;;4.68;86.95;99745.72;5060166;28;19924;-66
2021/12/12 09:21:24;;;;;;;9.27;2.35;;;;;;;4.73;86.56;99749.31;5061550;28;20037;-66
2021/12/12 09:24:06;;;;;;;8.98;2.50;;;;;;;4.66;87.42;99747.41;5060758;28;20028;-66
2021/12/12 09:26:36;;;;;;;19.05;2.90;;;;;;;4.72;86.53;99747.56;5061615;28;20020;-67
2021/12/12 09:29:05;;;;;;;10.38;2.90;;;;;;;4.77;87.39;99744.19;5055671;28;20017;-67
2021/12/12 09:31:45;;;;;;;8.88;2.42;;;;;;;4.79;86.87;99739.00;5062297;28;20092;-67
2021/12/12 09:34:24;;;;;;;20.75;2.75;;;;;;;4.74;87.49;99730.22;5057272;28;20012;-67
2021/12/12 09:37:19;;;;;;;13.73;2.58;;;;;;;4.81;86.76;99732.09;5068532;28;20025;-67
2021/12/12 09:39:50;;;;;;;9.88;3.28;;;;;;;4.88;86.92;99728.75;5063170;28;20319;-68
2021/12/12 09:42:43;;;;;;;8.80;2.72;;;;;;;4.83;87.09;99728.66;5061124;28;20044;-66
2021/12/12 09:45:37;;;;;;;10.05;2.25;;;;;;;5.00;87.22;99721.19;5069230;28;20017;-66
2021/12/12 09:51:17;;;;;;;13.63;3.08;;;;;;;4.96;86.94;99722.84;5055985;28;20024;-66
2021/12/12 09:54:03;;;;;;;19.15;2.97;;;;;;;5.03;86.65;99723.88;5058954;28;20084;-66
2021/12/12 09:56:53;;;;;;;6.15;2.47;;;;;;;5.18;85.55;99724.13;5061819;28;20020;-66
2021/12/12 09:59:43;;;;;;;14.73;3.05;;;;;;;5.16;86.54;99725.84;5050947;28;20022;-66
2021/12/12 10:02:19;;;;;;;11.60;2.60;;;;;;;5.30;86.94;99719.16;5058377;28;20321;-66
2021/12/12 10:05:03;;;;;;;13.43;3.53;;;;;;;5.30;86.48;99719.16;5057180;28;20265;-66
2021/12/12 10:07:34;;;;;;;12.73;3.28;;;;;;;5.26;86.62;99717.34;5061078;28;20025;-66
2021/12/12 10:10:05;;;;;;;13.38;3.08;;;;;;;5.38;86.41;99717.59;5059119;28;20313;-66
2021/12/12 10:12:36;;;;;;;13.10;3.10;;;;;;;5.47;86.46;99713.38;5057230;28;20024;-66
2021/12/12 10:15:11;;;;;;;11.70;2.92;;;;;;;5.43;86.03;99710.69;5056620;28;20021;-66
2021/12/12 10:17:49;;;;;;;8.75;3.00;;;;;;;5.43;86.18;99715.91;5061051;28;20104;-66
2021/12/12 10:20:23;;;;;;;12.73;3.05;;;;;;;5.53;86.15;99710.00;5059471;28;20083;-66
2021/12/12 10:23:11;;;;;;;15.82;3.35;;;;;;;5.54;86.49;99703.94;5055556;28;20063;-66
2021/12/12 10:25:48;;;;;;;20.75;4.75;;;;;;;5.52;85.76;99710.88;5060807;28;20255;-66
2021/12/12 10:28:34;;;;;;;11.20;2.75;;;;;;;5.50;85.94;99707.34;5056099;28;20017;-66
2021/12/12 10:31:14;;;;;;;14.50;3.30;;;;;;;5.45;86.71;99703.78;5064499;28;20047;-66
2021/12/12 10:33:46;;;;;;;22.67;3.47;;;;;;;5.66;88.02;99698.94;5066228;28;20028;-66
2021/12/12 10:36:15;;;;;;;19.63;4.00;;;;;;;5.53;87.02;99702.16;5066593;28;20049;-66
2021/12/12 10:39:18;;;;;;;10.48;3.55;;;;;;;5.46;86.83;99705.53;5066504;28;20032;-66
2021/12/12 10:41:52;;;;;;;11.80;3.38;;;;;;;5.40;86.42;99708.03;5066451;28;20025;-66
2021/12/12 10:44:34;;;;;;;8.90;3.08;;;;;;;5.48;87.80;99698.63;5066409;28;20020;-66
2021/12/12 10:47:08;;;;;;;;;;;;;;;5.58;87.48;99700.53;5067079;28;20362;-66
2021/12/12 10:49:59;;;;;;;8.57;2.88;;;;;;;5.66;86.49;99688.50;5066408;28;19905;-66
2021/12/12 10:52:37;;;;;;;13.02;3.42;;;;;;;5.55;87.24;99685.69;5066261;28;20021;-66
2021/12/12 10:55:17;;;;;;;16.45;4.03;;;;;;;5.61;87.38;99671.84;5066454;28;20020;-66
2021/12/12 10:57:52;;;;;;;11.05;3.58;;;;;;;5.67;87.99;99679.78;5066210;28;20067;-66
2021/12/12 11:00:22;;;;;;;12.50;3.38;;;;;;;5.65;87.13;99681.50;5066127;28;20031;-66
2021/12/12 11:02:55;;;;;;;12.18;3.75;;;;;;;5.75;87.94;99672.94;5066104;28;20029;-66
2021/12/12 11:05:27;;;;;;;10.90;3.85;;;;;;;5.69;87.37;99667.63;5065975;28;20138;-66
2021/12/12 11:08:08;;;;;;;15.40;3.88;;;;;;;5.62;88.13;99660.53;5066251;28;20021;-66
2021/12/12 11:10:37;;;;;;;15.25;3.90;;;;;;;5.65;88.07;99656.25;5066034;28;20029;-66
2021/12/12 11:13:25;;;;;;;19.60;4.57;;;;;;;5.75;88.60;99667.72;5065774;28;20091;-66
2021/12/12 11:16:00;;;;;;;8.00;3.45;;;;;;;5.75;88.81;99652.06;5065776;28;20029;-66
2021/12/12 11:18:31;;;;;;;12.48;3.55;;;;;;;5.92;88.78;99656.72;5065720;28;20044;-66
2021/12/12 11:21:04;;;;;;;10.32;3.17;;;;;;;5.88;88.66;99661.88;5065821;28;20021;-66
2021/12/12 11:23:43;;;;;;;15.45;4.30;;;;;;;5.82;88.62;99662.66;5065735;28;20032;-66
2021/12/12 11:26:18;;;;;;;16.02;3.15;;;;;;;5.86;88.54;99661.84;5065683;28;20024;-66
2021/12/12 11:28:48;;;;;;;12.68;3.53;;;;;;;5.89;88.89;99666.25;5065653;28;20028;-66
2021/12/12 11:31:22;;;;;;;12.55;3.45;;;;;;;5.88;88.87;99664.47;5065621;28;20088;-66
2021/12/12 11:33:50;;;;;;;13.48;3.38;;;;;;;5.87;89.19;99665.34;5065513;28;20083;-66
2021/12/12 11:36:20;;;;;;;15.73;3.60;;;;;;;5.87;88.80;99667.97;5064190;28;20170;-66
2021/12/12 11:38:51;;;;;;;10.18;3.45;;;;;;;5.86;89.04;99672.28;5065436;28;20059;-66
2021/12/12 11:41:34;;;;;;;21.48;4.43;;;;;;;5.83;89.24;99666.16;5065377;28;20033;-66
2021/12/12 11:44:26;;;;;;;13.23;3.17;;;;;;;5.85;89.20;99669.66;5065387;28;20305;-66
2021/12/12 11:47:17;;;;;;;22.98;3.92;;;;;;;5.79;88.98;99662.56;5065272;28;20027;-66
2021/12/12 11:49:50;;;;;;;16.98;4.03;;;;;;;5.74;89.80;99668.59;5065228;28;20312;-66
2021/12/12 11:52:33;;;;;;;15.63;3.45;;;;;;;5.79;90.59;99664.34;5065075;28;20071;-66
2021/12/12 11:55:05;;;;;;;9.88;3.50;;;;;;;5.88;90.79;99665.38;5065180;28;20021;-66
2021/12/12 11:57:38;;;;;;;11.70;3.17;;;;;;;5.92;89.97;99666.31;5065085;28;20375;-66
2021/12/12 12:00:15;;;;;;;14.65;3.20;;;;;;;5.88;90.86;99659.25;5065067;28;20082;-66
2021/12/12 12:03:08;;;;;;;13.65;3.50;;;;;;;5.86;91.14;99666.22;5064983;28;20225;-66
2021/12/12 12:06:01;;;;;;;9.65;3.03;;;;;;;5.95;91.51;99663.75;5065157;28;20016;-66
2021/12/12 12:08:27;;;;;;;15.35;3.65;;;;;;;6.02;91.75;99674.28;5064815;28;20056;-66
2021/12/12 12:11:19;;;;;;;12.80;3.70;;;;;;;6.02;91.12;99658.59;5064767;28;20036;-66
2021/12/12 12:13:54;;;;;;;14.35;3.70;;;;;;;6.07;90.83;99658.69;5064779;28;20020;-66
2021/12/12 12:16:44;;;;;;;15.48;4.13;;;;;;;6.10;91.10;99648.25;5064625;28;20245;-66
2021/12/12 12:19:35;;;;;;;24.23;4.00;;;;;;;6.17;90.23;99637.06;5064555;28;20041;-66
2021/12/12 12:22:25;;;;;;;13.20;3.17;;;;;;;6.32;90.24;99642.47;5064638;28;20017;-66